CheckWX is a tool to help pilots better visualize weather data.  It is not intended as a substitute for an official pre-flight weather briefing.

07:02:20 UTC

KGGP METAR
Logansport / Cass County Airport
Logansport, Indiana, USA
Current

27 mins ago

KGGP 190635Z AUTO 11003KT 10SM CLR 13/12 A3013 RMK AO2
Observed
Sep-19 @ 06:35 UTC
Wind
  • 110° at 3 KTS
Visibility
10 SM
Flight Rules
VFR
Cloud Levels
  • Clear skies
Temperature
13°C / 55°F
Dewpoint
12°C / 54°F
Humidity
94%
Altimeter
30.13" Hg
Pressure
1020.32 hPa
Previous

47 mins ago

KGGP 190615Z AUTO 10004KT 10SM CLR 14/12 A3012 RMK AO2
Observed
Sep-19 @ 06:15 UTC
Wind
  • 100° at 4 KTS
Visibility
10 SM
Flight Rules
VFR
Cloud Levels
  • Clear skies
Temperature
14°C / 57°F
Dewpoint
12°C / 54°F
Humidity
88%
Altimeter
30.12" Hg
Pressure
1020.02 hPa
Previous

1 hour ago

KGGP 190555Z AUTO 09005KT 10SM CLR 15/13 A3012 RMK AO2
Observed
Sep-19 @ 05:55 UTC
Wind
  • 090° at 5 KTS
Visibility
10 SM
Flight Rules
VFR
Cloud Levels
  • Clear skies
Temperature
15°C / 59°F
Dewpoint
13°C / 55°F
Humidity
88%
Altimeter
30.12" Hg
Pressure
1020.02 hPa